sensor_id;sensor_type;location;lat;lon;timestamp;P1;durP1;ratioP1;P2;durP2;ratioP2
57605;SDS011;43430;48.204;11.556;2023-06-22T00:01:09;11.10;;;3.45;;
57605;SDS011;43430;48.204;11.556;2023-06-22T00:03:34;9.13;;;3.30;;
57605;SDS011;43430;48.204;11.556;2023-06-22T00:05:59;10.15;;;3.35;;
57605;SDS011;43430;48.204;11.556;2023-06-22T00:08:25;7.55;;;3.22;;
57605;SDS011;43430;48.204;11.556;2023-06-22T00:10:50;8.75;;;3.33;;
57605;SDS011;43430;48.204;11.556;2023-06-22T00:13:16;9.02;;;2.70;;
57605;SDS011;43430;48.204;11.556;2023-06-22T00:15:42;7.35;;;3.25;;
57605;SDS011;43430;48.204;11.556;2023-06-22T00:18:08;7.40;;;2.67;;
57605;SDS011;43430;48.204;11.556;2023-06-22T00:20:34;5.03;;;2.60;;
57605;SDS011;43430;48.204;11.556;2023-06-22T00:23:02;10.18;;;3.03;;
57605;SDS011;43430;48.204;11.556;2023-06-22T00:25:33;10.10;;;3.30;;
57605;SDS011;43430;48.204;11.556;2023-06-22T00:27:59;8.05;;;3.30;;
57605;SDS011;43430;48.204;11.556;2023-06-22T00:30:25;6.43;;;2.78;;
57605;SDS011;43430;48.204;11.556;2023-06-22T00:32:50;8.25;;;2.65;;
57605;SDS011;43430;48.204;11.556;2023-06-22T00:35:15;6.22;;;3.10;;
57605;SDS011;43430;48.204;11.556;2023-06-22T00:37:41;8.90;;;2.95;;
57605;SDS011;43430;48.204;11.556;2023-06-22T00:40:07;7.72;;;2.80;;
57605;SDS011;43430;48.204;11.556;2023-06-22T00:42:39;6.57;;;2.72;;
57605;SDS011;43430;48.204;11.556;2023-06-22T00:45:06;5.90;;;2.70;;
57605;SDS011;43430;48.204;11.556;2023-06-22T00:47:32;6.55;;;2.90;;
57605;SDS011;43430;48.204;11.556;2023-06-22T00:49:59;7.45;;;2.45;;
57605;SDS011;43430;48.204;11.556;2023-06-22T00:52:25;7.93;;;2.55;;
57605;SDS011;43430;48.204;11.556;2023-06-22T00:54:54;7.80;;;2.63;;
57605;SDS011;43430;48.204;11.556;2023-06-22T00:57:26;12.32;;;2.88;;
57605;SDS011;43430;48.204;11.556;2023-06-22T00:59:53;7.07;;;3.08;;
57605;SDS011;43430;48.204;11.556;2023-06-22T01:02:19;6.93;;;2.80;;
57605;SDS011;43430;48.204;11.556;2023-06-22T01:04:44;9.23;;;2.78;;
57605;SDS011;43430;48.204;11.556;2023-06-22T01:10:07;6.07;;;2.83;;
57605;SDS011;43430;48.204;11.556;2023-06-22T01:12:41;7.05;;;2.67;;
57605;SDS011;43430;48.204;11.556;2023-06-22T01:15:16;5.60;;;2.67;;
57605;SDS011;43430;48.204;11.556;2023-06-22T01:17:46;7.70;;;2.78;;
57605;SDS011;43430;48.204;11.556;2023-06-22T01:20:13;6.40;;;2.88;;
57605;SDS011;43430;48.204;11.556;2023-06-22T01:22:56;7.00;;;2.83;;
57605;SDS011;43430;48.204;11.556;2023-06-22T01:28:46;7.70;;;3.10;;
57605;SDS011;43430;48.204;11.556;2023-06-22T01:33:44;7.90;;;2.90;;
57605;SDS011;43430;48.204;11.556;2023-06-22T01:36:11;8.30;;;3.25;;
57605;SDS011;43430;48.204;11.556;2023-06-22T01:38:38;7.80;;;2.95;;
57605;SDS011;43430;48.204;11.556;2023-06-22T01:41:04;7.30;;;2.78;;
57605;SDS011;43430;48.204;11.556;2023-06-22T01:43:30;5.35;;;2.67;;
57605;SDS011;43430;48.204;11.556;2023-06-22T01:45:58;6.93;;;2.78;;
57605;SDS011;43430;48.204;11.556;2023-06-22T01:48:25;7.22;;;3.25;;
57605;SDS011;43430;48.204;11.556;2023-06-22T01:50:51;11.20;;;3.08;;
57605;SDS011;43430;48.204;11.556;2023-06-22T01:53:20;5.78;;;2.85;;
57605;SDS011;43430;48.204;11.556;2023-06-22T01:55:46;6.18;;;2.67;;
57605;SDS011;43430;48.204;11.556;2023-06-22T01:58:12;5.57;;;2.80;;
57605;SDS011;43430;48.204;11.556;2023-06-22T02:00:38;7.35;;;2.63;;
57605;SDS011;43430;48.204;11.556;2023-06-22T02:03:10;5.90;;;2.55;;
57605;SDS011;43430;48.204;11.556;2023-06-22T02:05:39;8.43;;;3.13;;
57605;SDS011;43430;48.204;11.556;2023-06-22T02:08:28;9.10;;;3.33;;
57605;SDS011;43430;48.204;11.556;2023-06-22T02:10:57;11.38;;;3.53;;
57605;SDS011;43430;48.204;11.556;2023-06-22T02:13:24;7.53;;;2.85;;
57605;SDS011;43430;48.204;11.556;2023-06-22T02:15:50;6.45;;;3.28;;
57605;SDS011;43430;48.204;11.556;2023-06-22T02:18:16;14.55;;;3.58;;
57605;SDS011;43430;48.204;11.556;2023-06-22T02:20:42;7.78;;;3.45;;
57605;SDS011;43430;48.204;11.556;2023-06-22T02:23:07;6.85;;;3.03;;
57605;SDS011;43430;48.204;11.556;2023-06-22T02:25:33;6.45;;;3.40;;
57605;SDS011;43430;48.204;11.556;2023-06-22T02:27:59;9.13;;;3.30;;
57605;SDS011;43430;48.204;11.556;2023-06-22T02:30:25;9.38;;;3.25;;
57605;SDS011;43430;48.204;11.556;2023-06-22T02:32:50;9.55;;;3.40;;
57605;SDS011;43430;48.204;11.556;2023-06-22T02:35:23;6.15;;;2.97;;
57605;SDS011;43430;48.204;11.556;2023-06-22T02:37:49;8.02;;;3.70;;
57605;SDS011;43430;48.204;11.556;2023-06-22T02:40:16;11.32;;;3.78;;
57605;SDS011;43430;48.204;11.556;2023-06-22T02:42:42;10.10;;;3.10;;
57605;SDS011;43430;48.204;11.556;2023-06-22T02:45:07;6.80;;;3.10;;
57605;SDS011;43430;48.204;11.556;2023-06-22T02:47:33;10.63;;;3.47;;
57605;SDS011;43430;48.204;11.556;2023-06-22T02:49:58;8.68;;;3.72;;
57605;SDS011;43430;48.204;11.556;2023-06-22T02:52:24;9.77;;;4.10;;
57605;SDS011;43430;48.204;11.556;2023-06-22T02:54:49;8.38;;;3.90;;
57605;SDS011;43430;48.204;11.556;2023-06-22T02:57:15;8.10;;;3.83;;
57605;SDS011;43430;48.204;11.556;2023-06-22T02:59:40;10.13;;;4.53;;
57605;SDS011;43430;48.204;11.556;2023-06-22T03:02:07;8.90;;;4.57;;
57605;SDS011;43430;48.204;11.556;2023-06-22T03:04:34;12.93;;;3.85;;
57605;SDS011;43430;48.204;11.556;2023-06-22T03:06:59;9.23;;;3.75;;
57605;SDS011;43430;48.204;11.556;2023-06-22T03:09:26;11.80;;;4.78;;
57605;SDS011;43430;48.204;11.556;2023-06-22T03:11:52;10.70;;;4.10;;
57605;SDS011;43430;48.204;11.556;2023-06-22T03:14:18;8.15;;;3.80;;
57605;SDS011;43430;48.204;11.556;2023-06-22T03:16:43;9.48;;;4.10;;
57605;SDS011;43430;48.204;11.556;2023-06-22T03:19:09;9.60;;;3.90;;
57605;SDS011;43430;48.204;11.556;2023-06-22T03:21:34;10.80;;;4.13;;
57605;SDS011;43430;48.204;11.556;2023-06-22T03:24:02;11.90;;;4.20;;
57605;SDS011;43430;48.204;11.556;2023-06-22T03:26:27;9.43;;;3.90;;
57605;SDS011;43430;48.204;11.556;2023-06-22T03:28:53;8.57;;;4.18;;
57605;SDS011;43430;48.204;11.556;2023-06-22T03:31:18;10.13;;;3.97;;
57605;SDS011;43430;48.204;11.556;2023-06-22T03:33:46;8.32;;;3.97;;
57605;SDS011;43430;48.204;11.556;2023-06-22T03:36:12;10.18;;;4.78;;
57605;SDS011;43430;48.204;11.556;2023-06-22T03:38:37;7.55;;;4.10;;
57605;SDS011;43430;48.204;11.556;2023-06-22T03:41:03;9.20;;;4.25;;
57605;SDS011;43430;48.204;11.556;2023-06-22T03:43:28;10.30;;;4.57;;
57605;SDS011;43430;48.204;11.556;2023-06-22T03:45:53;13.85;;;4.13;;
57605;SDS011;43430;48.204;11.556;2023-06-22T03:48:19;11.15;;;4.03;;
57605;SDS011;43430;48.204;11.556;2023-06-22T03:50:44;6.85;;;4.40;;
57605;SDS011;43430;48.204;11.556;2023-06-22T03:53:10;8.40;;;3.80;;
57605;SDS011;43430;48.204;11.556;2023-06-22T03:55:36;10.65;;;4.20;;
57605;SDS011;43430;48.204;11.556;2023-06-22T03:58:01;9.93;;;3.70;;
57605;SDS011;43430;48.204;11.556;2023-06-22T04:00:30;10.00;;;4.63;;
57605;SDS011;43430;48.204;11.556;2023-06-22T04:02:56;13.00;;;3.88;;
57605;SDS011;43430;48.204;11.556;2023-06-22T04:05:22;8.40;;;4.35;;
57605;SDS011;43430;48.204;11.556;2023-06-22T04:07:48;9.13;;;4.15;;
57605;SDS011;43430;48.204;11.556;2023-06-22T04:10:13;9.13;;;4.28;;
57605;SDS011;43430;48.204;11.556;2023-06-22T04:12:38;11.25;;;3.80;;
57605;SDS011;43430;48.204;11.556;2023-06-22T04:15:04;12.63;;;3.67;;
57605;SDS011;43430;48.204;11.556;2023-06-22T04:17:30;9.20;;;4.15;;
57605;SDS011;43430;48.204;11.556;2023-06-22T04:19:55;10.20;;;4.55;;
57605;SDS011;43430;48.204;11.556;2023-06-22T04:22:20;8.25;;;4.40;;
57605;SDS011;43430;48.204;11.556;2023-06-22T04:24:46;8.25;;;4.18;;
57605;SDS011;43430;48.204;11.556;2023-06-22T04:27:11;12.80;;;4.75;;
57605;SDS011;43430;48.204;11.556;2023-06-22T04:29:37;11.68;;;4.85;;
57605;SDS011;43430;48.204;11.556;2023-06-22T04:32:03;7.00;;;3.72;;
57605;SDS011;43430;48.204;11.556;2023-06-22T04:34:30;7.95;;;3.97;;
57605;SDS011;43430;48.204;11.556;2023-06-22T04:36:56;9.32;;;4.18;;
57605;SDS011;43430;48.204;11.556;2023-06-22T04:39:22;11.70;;;4.32;;
57605;SDS011;43430;48.204;11.556;2023-06-22T04:41:49;8.77;;;4.40;;
57605;SDS011;43430;48.204;11.556;2023-06-22T04:44:16;13.85;;;5.00;;
57605;SDS011;43430;48.204;11.556;2023-06-22T04:46:59;10.75;;;4.32;;
57605;SDS011;43430;48.204;11.556;2023-06-22T04:49:28;12.70;;;4.28;;
57605;SDS011;43430;48.204;11.556;2023-06-22T04:52:07;11.23;;;4.05;;
57605;SDS011;43430;48.204;11.556;2023-06-22T04:54:34;7.45;;;4.03;;
57605;SDS011;43430;48.204;11.556;2023-06-22T04:57:01;9.35;;;4.70;;
57605;SDS011;43430;48.204;11.556;2023-06-22T04:59:28;10.52;;;4.47;;
57605;SDS011;43430;48.204;11.556;2023-06-22T05:01:58;11.25;;;4.13;;
57605;SDS011;43430;48.204;11.556;2023-06-22T05:04:26;12.73;;;3.95;;
57605;SDS011;43430;48.204;11.556;2023-06-22T05:06:53;11.65;;;4.07;;
57605;SDS011;43430;48.204;11.556;2023-06-22T05:09:19;9.82;;;4.70;;
57605;SDS011;43430;48.204;11.556;2023-06-22T05:11:45;8.13;;;4.55;;
57605;SDS011;43430;48.204;11.556;2023-06-22T05:14:11;9.23;;;3.95;;
57605;SDS011;43430;48.204;11.556;2023-06-22T05:16:37;14.27;;;4.25;;
57605;SDS011;43430;48.204;11.556;2023-06-22T05:19:02;10.13;;;4.30;;
57605;SDS011;43430;48.204;11.556;2023-06-22T05:21:29;11.02;;;4.22;;
57605;SDS011;43430;48.204;11.556;2023-06-22T05:23:55;10.05;;;4.63;;
57605;SDS011;43430;48.204;11.556;2023-06-22T05:26:25;9.27;;;4.45;;
57605;SDS011;43430;48.204;11.556;2023-06-22T05:28:51;11.88;;;4.05;;
57605;SDS011;43430;48.204;11.556;2023-06-22T05:31:17;10.63;;;3.92;;
57605;SDS011;43430;48.204;11.556;2023-06-22T05:33:44;9.43;;;4.13;;
57605;SDS011;43430;48.204;11.556;2023-06-22T05:36:10;15.88;;;4.65;;
57605;SDS011;43430;48.204;11.556;2023-06-22T05:38:37;10.98;;;4.18;;
57605;SDS011;43430;48.204;11.556;2023-06-22T05:41:03;8.27;;;4.07;;
57605;SDS011;43430;48.204;11.556;2023-06-22T05:43:28;9.88;;;4.28;;
57605;SDS011;43430;48.204;11.556;2023-06-22T05:45:54;14.55;;;4.75;;
57605;SDS011;43430;48.204;11.556;2023-06-22T05:48:19;13.35;;;4.43;;
57605;SDS011;43430;48.204;11.556;2023-06-22T05:50:45;8.75;;;4.00;;
57605;SDS011;43430;48.204;11.556;2023-06-22T05:53:10;8.77;;;3.88;;
57605;SDS011;43430;48.204;11.556;2023-06-22T05:55:36;17.45;;;5.20;;
57605;SDS011;43430;48.204;11.556;2023-06-22T05:58:01;8.50;;;4.78;;
57605;SDS011;43430;48.204;11.556;2023-06-22T06:00:28;14.23;;;4.72;;
57605;SDS011;43430;48.204;11.556;2023-06-22T06:02:53;14.27;;;4.95;;
57605;SDS011;43430;48.204;11.556;2023-06-22T06:05:19;9.27;;;4.28;;
57605;SDS011;43430;48.204;11.556;2023-06-22T06:07:44;11.50;;;4.28;;
57605;SDS011;43430;48.204;11.556;2023-06-22T06:10:10;11.35;;;5.03;;
57605;SDS011;43430;48.204;11.556;2023-06-22T06:12:36;9.38;;;5.10;;
57605;SDS011;43430;48.204;11.556;2023-06-22T06:15:02;13.07;;;4.80;;
57605;SDS011;43430;48.204;11.556;2023-06-22T06:17:28;9.15;;;4.90;;
57605;SDS011;43430;48.204;11.556;2023-06-22T06:19:53;10.60;;;5.30;;
57605;SDS011;43430;48.204;11.556;2023-06-22T06:22:18;14.20;;;4.70;;
57605;SDS011;43430;48.204;11.556;2023-06-22T06:24:46;12.85;;;4.43;;
57605;SDS011;43430;48.204;11.556;2023-06-22T06:27:12;12.90;;;4.45;;
57605;SDS011;43430;48.204;11.556;2023-06-22T06:29:38;11.95;;;4.57;;
57605;SDS011;43430;48.204;11.556;2023-06-22T06:32:03;11.35;;;4.78;;
57605;SDS011;43430;48.204;11.556;2023-06-22T06:34:29;12.02;;;5.15;;
57605;SDS011;43430;48.204;11.556;2023-06-22T06:36:54;10.52;;;4.97;;
57605;SDS011;43430;48.204;11.556;2023-06-22T06:39:19;14.48;;;5.85;;
57605;SDS011;43430;48.204;11.556;2023-06-22T06:41:45;14.18;;;5.18;;
57605;SDS011;43430;48.204;11.556;2023-06-22T06:44:11;10.02;;;4.90;;
57605;SDS011;43430;48.204;11.556;2023-06-22T06:46:36;10.95;;;4.65;;
57605;SDS011;43430;48.204;11.556;2023-06-22T06:49:02;14.30;;;5.20;;
57605;SDS011;43430;48.204;11.556;2023-06-22T06:51:28;10.50;;;5.00;;
57605;SDS011;43430;48.204;11.556;2023-06-22T06:53:53;11.65;;;5.45;;
57605;SDS011;43430;48.204;11.556;2023-06-22T06:56:18;14.00;;;5.55;;
57605;SDS011;43430;48.204;11.556;2023-06-22T06:58:44;11.25;;;5.10;;
57605;SDS011;43430;48.204;11.556;2023-06-22T07:01:10;12.57;;;5.40;;
57605;SDS011;43430;48.204;11.556;2023-06-22T07:03:36;12.07;;;5.53;;
57605;SDS011;43430;48.204;11.556;2023-06-22T07:06:02;12.30;;;5.30;;
57605;SDS011;43430;48.204;11.556;2023-06-22T07:08:27;11.98;;;5.68;;
57605;SDS011;43430;48.204;11.556;2023-06-22T07:10:53;10.52;;;5.07;;
57605;SDS011;43430;48.204;11.556;2023-06-22T07:13:19;12.88;;;5.85;;
57605;SDS011;43430;48.204;11.556;2023-06-22T07:15:44;11.27;;;5.88;;
57605;SDS011;43430;48.204;11.556;2023-06-22T07:18:09;10.50;;;4.72;;
57605;SDS011;43430;48.204;11.556;2023-06-22T07:20:35;11.63;;;5.00;;
57605;SDS011;43430;48.204;11.556;2023-06-22T07:23:00;12.02;;;5.82;;
57605;SDS011;43430;48.204;11.556;2023-06-22T07:25:25;12.25;;;5.38;;
57605;SDS011;43430;48.204;11.556;2023-06-22T07:30:30;13.32;;;6.00;;
57605;SDS011;43430;48.204;11.556;2023-06-22T07:32:56;13.65;;;5.97;;
57605;SDS011;43430;48.204;11.556;2023-06-22T07:35:23;13.25;;;6.22;;
57605;SDS011;43430;48.204;11.556;2023-06-22T07:37:48;15.88;;;6.18;;
57605;SDS011;43430;48.204;11.556;2023-06-22T07:40:14;14.23;;;5.63;;
57605;SDS011;43430;48.204;11.556;2023-06-22T07:42:39;11.32;;;5.18;;
57605;SDS011;43430;48.204;11.556;2023-06-22T07:45:05;19.40;;;5.30;;
57605;SDS011;43430;48.204;11.556;2023-06-22T07:47:33;10.48;;;5.43;;
57605;SDS011;43430;48.204;11.556;2023-06-22T07:50:00;13.55;;;5.93;;
57605;SDS011;43430;48.204;11.556;2023-06-22T07:52:30;12.57;;;4.93;;
57605;SDS011;43430;48.204;11.556;2023-06-22T07:54:55;9.82;;;5.45;;
57605;SDS011;43430;48.204;11.556;2023-06-22T07:57:21;12.13;;;6.30;;
57605;SDS011;43430;48.204;11.556;2023-06-22T07:59:46;19.02;;;6.57;;
57605;SDS011;43430;48.204;11.556;2023-06-22T08:02:12;14.38;;;5.53;;
57605;SDS011;43430;48.204;11.556;2023-06-22T08:04:37;14.38;;;6.20;;
57605;SDS011;43430;48.204;11.556;2023-06-22T08:07:03;13.52;;;5.90;;
57605;SDS011;43430;48.204;11.556;2023-06-22T08:09:29;12.95;;;5.82;;
57605;SDS011;43430;48.204;11.556;2023-06-22T08:11:55;8.73;;;5.40;;
57605;SDS011;43430;48.204;11.556;2023-06-22T08:14:21;14.60;;;5.30;;
57605;SDS011;43430;48.204;11.556;2023-06-22T08:16:50;13.45;;;6.20;;
57605;SDS011;43430;48.204;11.556;2023-06-22T08:19:16;9.40;;;5.35;;
57605;SDS011;43430;48.204;11.556;2023-06-22T08:21:41;12.23;;;6.20;;
57605;SDS011;43430;48.204;11.556;2023-06-22T08:24:07;10.68;;;4.85;;
57605;SDS011;43430;48.204;11.556;2023-06-22T08:26:33;12.05;;;5.55;;
57605;SDS011;43430;48.204;11.556;2023-06-22T08:29:02;10.75;;;6.15;;
57605;SDS011;43430;48.204;11.556;2023-06-22T08:31:27;11.38;;;5.75;;
57605;SDS011;43430;48.204;11.556;2023-06-22T08:33:53;10.02;;;5.30;;
57605;SDS011;43430;48.204;11.556;2023-06-22T08:36:18;14.10;;;5.65;;
57605;SDS011;43430;48.204;11.556;2023-06-22T08:38:43;12.55;;;5.55;;
57605;SDS011;43430;48.204;11.556;2023-06-22T08:41:09;8.77;;;5.30;;
57605;SDS011;43430;48.204;11.556;2023-06-22T08:43:35;13.18;;;5.68;;
57605;SDS011;43430;48.204;11.556;2023-06-22T08:46:00;15.63;;;5.60;;
57605;SDS011;43430;48.204;11.556;2023-06-22T08:48:27;14.25;;;5.72;;
57605;SDS011;43430;48.204;11.556;2023-06-22T08:50:53;17.00;;;5.40;;
57605;SDS011;43430;48.204;11.556;2023-06-22T08:53:18;11.68;;;5.57;;
57605;SDS011;43430;48.204;11.556;2023-06-22T08:55:43;14.60;;;5.47;;
57605;SDS011;43430;48.204;11.556;2023-06-22T08:58:10;11.98;;;5.70;;
57605;SDS011;43430;48.204;11.556;2023-06-22T09:00:35;14.40;;;5.55;;
57605;SDS011;43430;48.204;11.556;2023-06-22T09:03:01;11.45;;;5.78;;
57605;SDS011;43430;48.204;11.556;2023-06-22T09:05:26;14.40;;;6.00;;
57605;SDS011;43430;48.204;11.556;2023-06-22T09:07:51;14.20;;;5.63;;
57605;SDS011;43430;48.204;11.556;2023-06-22T09:10:19;11.90;;;5.32;;
57605;SDS011;43430;48.204;11.556;2023-06-22T09:12:45;15.05;;;5.60;;
57605;SDS011;43430;48.204;11.556;2023-06-22T09:15:10;10.57;;;5.28;;
57605;SDS011;43430;48.204;11.556;2023-06-22T09:17:36;11.73;;;5.88;;
57605;SDS011;43430;48.204;11.556;2023-06-22T09:20:02;11.35;;;5.40;;
57605;SDS011;43430;48.204;11.556;2023-06-22T09:22:30;14.43;;;5.80;;
57605;SDS011;43430;48.204;11.556;2023-06-22T09:24:56;13.02;;;5.22;;
57605;SDS011;43430;48.204;11.556;2023-06-22T09:27:24;14.75;;;5.22;;
57605;SDS011;43430;48.204;11.556;2023-06-22T09:29:50;13.82;;;5.18;;
57605;SDS011;43430;48.204;11.556;2023-06-22T09:32:15;14.52;;;5.45;;
57605;SDS011;43430;48.204;11.556;2023-06-22T09:34:40;11.70;;;5.40;;
57605;SDS011;43430;48.204;11.556;2023-06-22T09:37:06;14.90;;;5.45;;
57605;SDS011;43430;48.204;11.556;2023-06-22T09:39:31;11.40;;;4.93;;
57605;SDS011;43430;48.204;11.556;2023-06-22T09:42:00;12.02;;;5.43;;
57605;SDS011;43430;48.204;11.556;2023-06-22T09:44:25;14.07;;;5.45;;
57605;SDS011;43430;48.204;11.556;2023-06-22T09:46:50;9.63;;;5.15;;
57605;SDS011;43430;48.204;11.556;2023-06-22T09:49:16;14.23;;;5.80;;
57605;SDS011;43430;48.204;11.556;2023-06-22T09:51:41;13.95;;;6.03;;
57605;SDS011;43430;48.204;11.556;2023-06-22T09:54:07;12.23;;;5.55;;
57605;SDS011;43430;48.204;11.556;2023-06-22T09:56:32;12.10;;;6.13;;
57605;SDS011;43430;48.204;11.556;2023-06-22T09:58:57;14.88;;;5.47;;
57605;SDS011;43430;48.204;11.556;2023-06-22T10:01:23;9.20;;;5.10;;
57605;SDS011;43430;48.204;11.556;2023-06-22T10:03:49;18.35;;;6.25;;
57605;SDS011;43430;48.204;11.556;2023-06-22T10:06:19;12.77;;;5.82;;
57605;SDS011;43430;48.204;11.556;2023-06-22T10:08:45;11.63;;;5.45;;
57605;SDS011;43430;48.204;11.556;2023-06-22T10:11:10;17.33;;;5.70;;
57605;SDS011;43430;48.204;11.556;2023-06-22T10:13:35;14.35;;;5.93;;
57605;SDS011;43430;48.204;11.556;2023-06-22T10:16:01;11.50;;;5.32;;
57605;SDS011;43430;48.204;11.556;2023-06-22T10:18:26;18.65;;;6.20;;
57605;SDS011;43430;48.204;11.556;2023-06-22T10:20:51;10.63;;;5.40;;
57605;SDS011;43430;48.204;11.556;2023-06-22T10:23:17;13.50;;;6.20;;
57605;SDS011;43430;48.204;11.556;2023-06-22T10:25:43;12.48;;;5.97;;
57605;SDS011;43430;48.204;11.556;2023-06-22T10:28:08;12.23;;;6.03;;
57605;SDS011;43430;48.204;11.556;2023-06-22T10:30:33;15.60;;;5.70;;
57605;SDS011;43430;48.204;11.556;2023-06-22T10:32:59;13.25;;;5.47;;
57605;SDS011;43430;48.204;11.556;2023-06-22T10:35:24;12.48;;;5.78;;
57605;SDS011;43430;48.204;11.556;2023-06-22T10:37:49;10.75;;;5.10;;
57605;SDS011;43430;48.204;11.556;2023-06-22T10:40:16;11.95;;;6.03;;
57605;SDS011;43430;48.204;11.556;2023-06-22T10:42:43;13.10;;;6.00;;
57605;SDS011;43430;48.204;11.556;2023-06-22T10:45:09;16.10;;;5.82;;
57605;SDS011;43430;48.204;11.556;2023-06-22T10:47:35;13.70;;;5.63;;
57605;SDS011;43430;48.204;11.556;2023-06-22T10:50:01;18.52;;;5.63;;
57605;SDS011;43430;48.204;11.556;2023-06-22T10:52:26;12.75;;;5.40;;
57605;SDS011;43430;48.204;11.556;2023-06-22T10:54:52;15.63;;;6.38;;
57605;SDS011;43430;48.204;11.556;2023-06-22T10:57:17;16.42;;;5.40;;
57605;SDS011;43430;48.204;11.556;2023-06-22T10:59:43;13.70;;;6.20;;
57605;SDS011;43430;48.204;11.556;2023-06-22T11:02:08;18.05;;;6.68;;
57605;SDS011;43430;48.204;11.556;2023-06-22T11:04:33;15.13;;;5.70;;
57605;SDS011;43430;48.204;11.556;2023-06-22T11:06:59;12.43;;;5.40;;
57605;SDS011;43430;48.204;11.556;2023-06-22T11:09:24;13.15;;;5.68;;
57605;SDS011;43430;48.204;11.556;2023-06-22T11:11:50;14.57;;;5.72;;
57605;SDS011;43430;48.204;11.556;2023-06-22T11:14:18;18.35;;;6.15;;
57605;SDS011;43430;48.204;11.556;2023-06-22T11:16:44;15.98;;;6.60;;
57605;SDS011;43430;48.204;11.556;2023-06-22T11:19:09;11.30;;;5.28;;
57605;SDS011;43430;48.204;11.556;2023-06-22T11:21:34;16.77;;;6.10;;
57605;SDS011;43430;48.204;11.556;2023-06-22T11:24:00;14.15;;;6.35;;
57605;SDS011;43430;48.204;11.556;2023-06-22T11:26:26;14.85;;;5.03;;
57605;SDS011;43430;48.204;11.556;2023-06-22T11:28:54;12.88;;;5.63;;
57605;SDS011;43430;48.204;11.556;2023-06-22T11:31:20;15.45;;;6.32;;
57605;SDS011;43430;48.204;11.556;2023-06-22T11:33:45;12.77;;;5.82;;
57605;SDS011;43430;48.204;11.556;2023-06-22T11:36:12;13.27;;;5.95;;
57605;SDS011;43430;48.204;11.556;2023-06-22T11:38:37;22.10;;;9.00;;
57605;SDS011;43430;48.204;11.556;2023-06-22T11:41:05;17.65;;;6.55;;
57605;SDS011;43430;48.204;11.556;2023-06-22T11:43:31;13.23;;;6.13;;
57605;SDS011;43430;48.204;11.556;2023-06-22T11:45:56;10.65;;;5.45;;
57605;SDS011;43430;48.204;11.556;2023-06-22T11:48:23;17.55;;;6.50;;
57605;SDS011;43430;48.204;11.556;2023-06-22T11:50:49;15.38;;;6.05;;
57605;SDS011;43430;48.204;11.556;2023-06-22T11:53:15;13.35;;;5.78;;
57605;SDS011;43430;48.204;11.556;2023-06-22T11:55:42;10.25;;;5.57;;
57605;SDS011;43430;48.204;11.556;2023-06-22T11:58:07;11.55;;;5.90;;
57605;SDS011;43430;48.204;11.556;2023-06-22T12:00:33;12.57;;;6.10;;
57605;SDS011;43430;48.204;11.556;2023-06-22T12:02:58;14.80;;;6.28;;
57605;SDS011;43430;48.204;11.556;2023-06-22T12:05:24;12.43;;;6.15;;
57605;SDS011;43430;48.204;11.556;2023-06-22T12:07:49;10.98;;;5.68;;
57605;SDS011;43430;48.204;11.556;2023-06-22T12:10:18;9.18;;;5.88;;
57605;SDS011;43430;48.204;11.556;2023-06-22T12:12:43;17.45;;;5.90;;
57605;SDS011;43430;48.204;11.556;2023-06-22T12:15:09;13.25;;;5.72;;
57605;SDS011;43430;48.204;11.556;2023-06-22T12:17:35;17.33;;;5.97;;
57605;SDS011;43430;48.204;11.556;2023-06-22T12:20:00;9.13;;;4.80;;
57605;SDS011;43430;48.204;11.556;2023-06-22T12:22:26;13.93;;;5.13;;
57605;SDS011;43430;48.204;11.556;2023-06-22T12:24:52;11.30;;;6.32;;
57605;SDS011;43430;48.204;11.556;2023-06-22T12:27:17;15.85;;;6.30;;
57605;SDS011;43430;48.204;11.556;2023-06-22T12:29:45;11.70;;;6.18;;
57605;SDS011;43430;48.204;11.556;2023-06-22T12:32:11;12.13;;;5.75;;
57605;SDS011;43430;48.204;11.556;2023-06-22T12:34:38;12.02;;;6.43;;
57605;SDS011;43430;48.204;11.556;2023-06-22T12:37:04;14.38;;;5.55;;
57605;SDS011;43430;48.204;11.556;2023-06-22T12:39:30;12.40;;;6.13;;
57605;SDS011;43430;48.204;11.556;2023-06-22T12:41:56;10.50;;;5.70;;
57605;SDS011;43430;48.204;11.556;2023-06-22T12:44:22;12.57;;;6.07;;
57605;SDS011;43430;48.204;11.556;2023-06-22T12:46:47;13.73;;;5.35;;
57605;SDS011;43430;48.204;11.556;2023-06-22T12:49:13;13.65;;;6.35;;
57605;SDS011;43430;48.204;11.556;2023-06-22T12:51:41;9.10;;;5.35;;
57605;SDS011;43430;48.204;11.556;2023-06-22T12:54:07;13.05;;;5.70;;
57605;SDS011;43430;48.204;11.556;2023-06-22T12:56:33;11.85;;;5.85;;
57605;SDS011;43430;48.204;11.556;2023-06-22T12:58:59;9.95;;;5.53;;
57605;SDS011;43430;48.204;11.556;2023-06-22T13:01:27;13.82;;;6.00;;
57605;SDS011;43430;48.204;11.556;2023-06-22T13:03:56;12.95;;;5.00;;
57605;SDS011;43430;48.204;11.556;2023-06-22T13:06:22;11.15;;;5.50;;
57605;SDS011;43430;48.204;11.556;2023-06-22T13:08:48;14.73;;;5.95;;
57605;SDS011;43430;48.204;11.556;2023-06-22T13:11:13;10.07;;;5.55;;
57605;SDS011;43430;48.204;11.556;2023-06-22T13:13:39;11.02;;;5.78;;
57605;SDS011;43430;48.204;11.556;2023-06-22T13:16:05;12.95;;;5.60;;
57605;SDS011;43430;48.204;11.556;2023-06-22T13:18:30;8.95;;;5.53;;
57605;SDS011;43430;48.204;11.556;2023-06-22T13:20:55;11.23;;;5.50;;
57605;SDS011;43430;48.204;11.556;2023-06-22T13:23:23;11.45;;;5.47;;
57605;SDS011;43430;48.204;11.556;2023-06-22T13:25:48;8.40;;;5.47;;
57605;SDS011;43430;48.204;11.556;2023-06-22T13:28:14;11.85;;;6.15;;
57605;SDS011;43430;48.204;11.556;2023-06-22T13:30:40;14.63;;;6.35;;
57605;SDS011;43430;48.204;11.556;2023-06-22T13:33:06;16.45;;;6.38;;
57605;SDS011;43430;48.204;11.556;2023-06-22T13:35:31;17.38;;;6.00;;
57605;SDS011;43430;48.204;11.556;2023-06-22T13:37:57;14.68;;;5.60;;
57605;SDS011;43430;48.204;11.556;2023-06-22T13:40:22;13.73;;;5.97;;
57605;SDS011;43430;48.204;11.556;2023-06-22T13:42:48;9.45;;;5.60;;
57605;SDS011;43430;48.204;11.556;2023-06-22T13:45:13;14.80;;;6.18;;
57605;SDS011;43430;48.204;11.556;2023-06-22T13:47:38;12.38;;;5.60;;
57605;SDS011;43430;48.204;11.556;2023-06-22T13:50:04;10.50;;;5.65;;
57605;SDS011;43430;48.204;11.556;2023-06-22T13:52:30;14.63;;;6.03;;
57605;SDS011;43430;48.204;11.556;2023-06-22T13:54:56;9.60;;;5.43;;
57605;SDS011;43430;48.204;11.556;2023-06-22T13:57:21;9.85;;;6.13;;
57605;SDS011;43430;48.204;11.556;2023-06-22T13:59:46;14.07;;;5.45;;
57605;SDS011;43430;48.204;11.556;2023-06-22T14:02:12;11.68;;;6.32;;
57605;SDS011;43430;48.204;11.556;2023-06-22T14:04:37;14.65;;;6.18;;
57605;SDS011;43430;48.204;11.556;2023-06-22T14:07:03;10.88;;;6.10;;
57605;SDS011;43430;48.204;11.556;2023-06-22T14:09:28;17.83;;;5.47;;
57605;SDS011;43430;48.204;11.556;2023-06-22T14:11:54;13.00;;;5.82;;
57605;SDS011;43430;48.204;11.556;2023-06-22T14:14:20;14.23;;;5.28;;
57605;SDS011;43430;48.204;11.556;2023-06-22T14:16:46;13.35;;;5.90;;
57605;SDS011;43430;48.204;11.556;2023-06-22T14:19:12;12.23;;;5.63;;
57605;SDS011;43430;48.204;11.556;2023-06-22T14:21:38;13.90;;;6.13;;
57605;SDS011;43430;48.204;11.556;2023-06-22T14:24:03;15.60;;;6.38;;
57605;SDS011;43430;48.204;11.556;2023-06-22T14:26:29;9.48;;;4.95;;
57605;SDS011;43430;48.204;11.556;2023-06-22T14:28:54;14.95;;;6.13;;
57605;SDS011;43430;48.204;11.556;2023-06-22T14:31:19;9.80;;;5.78;;